sensor_id;sensor_type;location;lat;lon;timestamp;temperature;humidity
13072;DHT22;6602;58.934;11.166;2022-12-07T14:18:37;-3.30;99.90
13072;DHT22;6602;58.934;11.166;2022-12-07T14:23:40;-3.50;99.90
13072;DHT22;6602;58.934;11.166;2022-12-07T14:28:42;-3.50;99.90
13072;DHT22;6602;58.934;11.166;2022-12-07T14:33:47;-3.60;99.90
13072;DHT22;6602;58.934;11.166;2022-12-07T14:39:07;-3.70;99.90
13072;DHT22;6602;58.934;11.166;2022-12-07T14:44:13;-3.90;99.90
13072;DHT22;6602;58.934;11.166;2022-12-07T14:49:21;-4.10;99.90
13072;DHT22;6602;58.934;11.166;2022-12-07T14:54:31;-4.10;99.90
13072;DHT22;6602;58.934;11.166;2022-12-07T14:59:45;-4.00;99.90
13072;DHT22;6602;58.934;11.166;2022-12-07T15:04:49;-4.00;99.90
13072;DHT22;6602;58.934;11.166;2022-12-07T15:09:54;-4.20;99.90
13072;DHT22;6602;58.934;11.166;2022-12-07T15:14:58;-4.30;99.90
13072;DHT22;6602;58.934;11.166;2022-12-07T15:19:59;-4.50;99.90
13072;DHT22;6602;58.934;11.166;2022-12-07T15:25:00;-4.50;99.90
13072;DHT22;6602;58.934;11.166;2022-12-07T15:30:02;-4.60;99.90
13072;DHT22;6602;58.934;11.166;2022-12-07T15:35:09;-4.90;99.90
13072;DHT22;6602;58.934;11.166;2022-12-07T15:40:11;-5.00;99.90
13072;DHT22;6602;58.934;11.166;2022-12-07T15:45:14;-5.00;99.90
13072;DHT22;6602;58.934;11.166;2022-12-07T15:50:15;-5.10;99.90
13072;DHT22;6602;58.934;11.166;2022-12-07T15:55:24;-5.20;99.90
13072;DHT22;6602;58.934;11.166;2022-12-07T16:00:25;-5.20;99.90
13072;DHT22;6602;58.934;11.166;2022-12-07T16:05:27;-5.10;99.90
13072;DHT22;6602;58.934;11.166;2022-12-07T16:10:31;-5.40;99.90
13072;DHT22;6602;58.934;11.166;2022-12-07T16:15:39;-5.50;99.90
13072;DHT22;6602;58.934;11.166;2022-12-07T16:20:56;-5.50;99.90
13072;DHT22;6602;58.934;11.166;2022-12-07T16:26:13;-5.50;99.90
13072;DHT22;6602;58.934;11.166;2022-12-07T16:31:17;-5.70;99.90
13072;DHT22;6602;58.934;11.166;2022-12-07T16:36:20;-5.80;99.90
13072;DHT22;6602;58.934;11.166;2022-12-07T16:41:26;-6.00;99.90
13072;DHT22;6602;58.934;11.166;2022-12-07T16:46:27;-6.20;99.90
13072;DHT22;6602;58.934;11.166;2022-12-07T16:51:49;-6.50;99.90
13072;DHT22;6602;58.934;11.166;2022-12-07T16:56:53;-6.70;99.90
13072;DHT22;6602;58.934;11.166;2022-12-07T17:01:59;-6.80;99.90
13072;DHT22;6602;58.934;11.166;2022-12-07T17:07:01;-6.80;99.90
13072;DHT22;6602;58.934;11.166;2022-12-07T17:12:03;-6.60;99.90
13072;DHT22;6602;58.934;11.166;2022-12-07T17:17:06;-6.50;99.90
13072;DHT22;6602;58.934;11.166;2022-12-07T17:22:07;-6.60;99.90
13072;DHT22;6602;58.934;11.166;2022-12-07T17:27:10;-6.30;99.90
13072;DHT22;6602;58.934;11.166;2022-12-07T17:32:12;-6.30;99.90
13072;DHT22;6602;58.934;11.166;2022-12-07T17:37:14;-6.30;99.90
13072;DHT22;6602;58.934;11.166;2022-12-07T17:42:42;-6.60;99.90
13072;DHT22;6602;58.934;11.166;2022-12-07T17:47:52;-6.70;99.90
13072;DHT22;6602;58.934;11.166;2022-12-07T17:52:58;-6.70;99.90
13072;DHT22;6602;58.934;11.166;2022-12-07T17:58:18;-6.60;99.90
13072;DHT22;6602;58.934;11.166;2022-12-07T18:03:23;-6.60;99.90
13072;DHT22;6602;58.934;11.166;2022-12-07T18:08:23;-6.50;99.90
13072;DHT22;6602;58.934;11.166;2022-12-07T18:13:26;-6.50;99.90
13072;DHT22;6602;58.934;11.166;2022-12-07T18:18:53;-6.50;99.90
13072;DHT22;6602;58.934;11.166;2022-12-07T18:23:56;-6.30;99.90
13072;DHT22;6602;58.934;11.166;2022-12-07T18:29:00;-6.10;99.90
13072;DHT22;6602;58.934;11.166;2022-12-07T18:34:05;-6.10;99.90
13072;DHT22;6602;58.934;11.166;2022-12-07T18:39:13;-5.90;99.90
13072;DHT22;6602;58.934;11.166;2022-12-07T18:44:15;-5.70;99.90
13072;DHT22;6602;58.934;11.166;2022-12-07T18:49:16;-5.50;99.90
13072;DHT22;6602;58.934;11.166;2022-12-07T18:54:18;-5.30;99.90
13072;DHT22;6602;58.934;11.166;2022-12-07T18:59:23;-5.40;99.90
13072;DHT22;6602;58.934;11.166;2022-12-07T19:04:42;-5.90;99.90
13072;DHT22;6602;58.934;11.166;2022-12-07T19:09:44;-6.30;99.90
13072;DHT22;6602;58.934;11.166;2022-12-07T19:14:45;-6.20;99.90
13072;DHT22;6602;58.934;11.166;2022-12-07T19:19:48;-6.30;99.90
13072;DHT22;6602;58.934;11.166;2022-12-07T19:24:51;-6.20;99.90
13072;DHT22;6602;58.934;11.166;2022-12-07T19:29:55;-6.30;99.90
13072;DHT22;6602;58.934;11.166;2022-12-07T19:34:59;-6.30;99.90
13072;DHT22;6602;58.934;11.166;2022-12-07T19:40:00;-6.40;99.90
13072;DHT22;6602;58.934;11.166;2022-12-07T19:45:02;-6.40;99.90
13072;DHT22;6602;58.934;11.166;2022-12-07T19:50:05;-6.40;99.90
13072;DHT22;6602;58.934;11.166;2022-12-07T19:55:07;-6.50;99.90
13072;DHT22;6602;58.934;11.166;2022-12-07T20:00:11;-6.30;99.90
13072;DHT22;6602;58.934;11.166;2022-12-07T20:05:12;-6.30;99.90
13072;DHT22;6602;58.934;11.166;2022-12-07T20:10:13;-6.30;99.90
13072;DHT22;6602;58.934;11.166;2022-12-07T20:15:14;-6.50;99.90
13072;DHT22;6602;58.934;11.166;2022-12-07T20:20:15;-6.60;99.90
13072;DHT22;6602;58.934;11.166;2022-12-07T20:25:16;-6.90;99.90
13072;DHT22;6602;58.934;11.166;2022-12-07T20:30:19;-7.00;99.90
13072;DHT22;6602;58.934;11.166;2022-12-07T20:35:20;-6.90;99.90
13072;DHT22;6602;58.934;11.166;2022-12-07T20:40:22;-6.80;99.90
13072;DHT22;6602;58.934;11.166;2022-12-07T20:45:23;-7.00;99.90
13072;DHT22;6602;58.934;11.166;2022-12-07T20:50:25;-7.10;99.90
13072;DHT22;6602;58.934;11.166;2022-12-07T20:55:27;-7.00;99.90
13072;DHT22;6602;58.934;11.166;2022-12-07T21:00:28;-7.00;99.90
13072;DHT22;6602;58.934;11.166;2022-12-07T21:05:32;-6.90;99.90
13072;DHT22;6602;58.934;11.166;2022-12-07T21:10:38;-6.90;99.90
13072;DHT22;6602;58.934;11.166;2022-12-07T21:15:39;-7.20;99.90
13072;DHT22;6602;58.934;11.166;2022-12-07T21:20:41;-7.30;99.90
13072;DHT22;6602;58.934;11.166;2022-12-07T21:25:41;-7.10;99.90
13072;DHT22;6602;58.934;11.166;2022-12-07T21:30:42;-7.10;99.90
13072;DHT22;6602;58.934;11.166;2022-12-07T21:35:47;-7.00;99.90
13072;DHT22;6602;58.934;11.166;2022-12-07T21:40:48;-7.00;99.90
13072;DHT22;6602;58.934;11.166;2022-12-07T21:45:53;-7.30;99.90
13072;DHT22;6602;58.934;11.166;2022-12-07T21:51:03;-7.50;99.90
13072;DHT22;6602;58.934;11.166;2022-12-07T21:56:18;-7.30;99.90
13072;DHT22;6602;58.934;11.166;2022-12-07T22:01:24;-7.20;99.90
13072;DHT22;6602;58.934;11.166;2022-12-07T22:06:27;-7.10;99.90
13072;DHT22;6602;58.934;11.166;2022-12-07T22:11:31;-7.30;99.90
13072;DHT22;6602;58.934;11.166;2022-12-07T22:16:38;-7.60;99.90
13072;DHT22;6602;58.934;11.166;2022-12-07T22:21:40;-7.60;99.90
13072;DHT22;6602;58.934;11.166;2022-12-07T22:26:42;-7.70;99.90
13072;DHT22;6602;58.934;11.166;2022-12-07T22:31:43;-7.80;99.90
13072;DHT22;6602;58.934;11.166;2022-12-07T22:36:46;-7.80;99.90
13072;DHT22;6602;58.934;11.166;2022-12-07T22:41:47;-7.80;99.90
13072;DHT22;6602;58.934;11.166;2022-12-07T22:46:49;-7.90;99.90
13072;DHT22;6602;58.934;11.166;2022-12-07T22:51:56;-7.90;99.90
13072;DHT22;6602;58.934;11.166;2022-12-07T22:56:57;-7.90;99.90
13072;DHT22;6602;58.934;11.166;2022-12-07T23:01:59;-7.90;99.90
13072;DHT22;6602;58.934;11.166;2022-12-07T23:07:00;-7.70;99.90
13072;DHT22;6602;58.934;11.166;2022-12-07T23:12:01;-7.80;99.90
13072;DHT22;6602;58.934;11.166;2022-12-07T23:17:20;-7.60;99.90
13072;DHT22;6602;58.934;11.166;2022-12-07T23:22:21;-7.60;99.90
13072;DHT22;6602;58.934;11.166;2022-12-07T23:27:22;-7.60;99.90
13072;DHT22;6602;58.934;11.166;2022-12-07T23:32:24;-7.90;99.90
13072;DHT22;6602;58.934;11.166;2022-12-07T23:37:30;-7.80;99.90
13072;DHT22;6602;58.934;11.166;2022-12-07T23:42:31;-7.90;99.90
13072;DHT22;6602;58.934;11.166;2022-12-07T23:47:32;-7.90;99.90
13072;DHT22;6602;58.934;11.166;2022-12-07T23:52:33;-7.90;99.90
13072;DHT22;6602;58.934;11.166;2022-12-07T23:57:35;-7.90;99.90
